createdAt,value
2019-02-06T00:01:40.595Z,24.23
2019-02-06T00:04:09.224Z,25.50
2019-02-06T00:06:37.856Z,26.77
2019-02-06T00:09:10.858Z,24.23
2019-02-06T00:11:39.596Z,25.73
2019-02-06T00:14:08.268Z,24.70
2019-02-06T00:16:37.056Z,25.20
2019-02-06T00:19:05.770Z,23.17
2019-02-06T00:21:34.399Z,23.93
2019-02-06T00:24:03.106Z,27.07
2019-02-06T00:26:31.785Z,27.80
2019-02-06T00:29:00.464Z,29.73
2019-02-06T00:31:29.612Z,31.17
2019-02-06T00:33:58.291Z,31.33
2019-02-06T00:36:26.926Z,34.03
2019-02-06T00:38:55.609Z,30.90
2019-02-06T00:41:24.239Z,30.23
2019-02-06T00:43:52.903Z,30.00
2019-02-06T00:46:21.592Z,30.00
2019-02-06T00:48:50.264Z,28.27
2019-02-06T00:51:22.056Z,28.10
2019-02-06T00:53:50.602Z,27.93
2019-02-06T00:56:19.217Z,29.23
2019-02-06T00:58:47.788Z,27.60
2019-02-06T01:01:16.533Z,27.87
2019-02-06T01:03:45.165Z,28.40
2019-02-06T01:06:13.839Z,28.47
2019-02-06T01:08:42.839Z,30.13
2019-02-06T01:11:11.442Z,30.37
2019-02-06T01:13:40.062Z,31.17
2019-02-06T01:16:08.832Z,30.30
2019-02-06T01:18:37.323Z,30.80
2019-02-06T01:21:05.998Z,31.50
2019-02-06T01:23:34.624Z,31.23
2019-02-06T01:26:03.554Z,29.97
2019-02-06T01:28:32.167Z,28.90
2019-02-06T01:31:03.910Z,31.23
2019-02-06T01:33:32.469Z,32.53
2019-02-06T01:36:01.106Z,32.40
2019-02-06T01:38:29.686Z,33.40
2019-02-06T01:40:58.226Z,31.20
2019-02-06T01:43:26.907Z,32.03
2019-02-06T01:45:55.540Z,32.93
2019-02-06T01:48:24.219Z,33.83
2019-02-06T01:50:52.850Z,39.23
2019-02-06T01:53:21.598Z,42.87
2019-02-06T01:55:50.279Z,43.00
2019-02-06T01:58:19.354Z,42.90
2019-02-06T02:00:47.978Z,39.30
2019-02-06T02:03:16.610Z,49.07
2019-02-06T02:05:45.278Z,52.50
2019-02-06T02:08:13.920Z,47.70
2019-02-06T02:10:42.768Z,47.57
2019-02-06T02:13:11.378Z,46.10
2019-02-06T02:15:40.156Z,43.83
2019-02-06T02:18:08.837Z,44.57
2019-02-06T02:20:37.465Z,43.83
2019-02-06T02:23:06.088Z,44.30
2019-02-06T02:25:34.699Z,45.40
2019-02-06T02:28:03.408Z,43.90
2019-02-06T02:30:43.014Z,41.47
2019-02-06T02:33:11.573Z,41.63
2019-02-06T02:35:40.250Z,42.60
2019-02-06T02:38:08.855Z,41.13
2019-02-06T02:40:37.481Z,39.23
2019-02-06T02:43:06.145Z,36.47
2019-02-06T02:45:34.796Z,38.27
2019-02-06T02:48:03.418Z,39.03
2019-02-06T02:50:32.051Z,38.33
2019-02-06T02:53:00.711Z,40.80
2019-02-06T02:55:29.333Z,40.17
2019-02-06T02:57:57.998Z,41.83
2019-02-06T03:00:28.445Z,41.87
2019-02-06T03:03:01.746Z,38.77
2019-02-06T03:05:31.950Z,40.87
2019-02-06T03:08:00.647Z,39.60
2019-02-06T03:10:29.292Z,40.97
2019-02-06T03:12:57.927Z,43.03
2019-02-06T03:15:26.608Z,41.60
2019-02-06T03:17:55.230Z,44.60
2019-02-06T03:20:23.913Z,47.70
2019-02-06T03:22:52.558Z,47.57
2019-02-06T03:25:21.227Z,48.70
2019-02-06T03:27:49.851Z,48.90
2019-02-06T03:30:19.863Z,52.60
2019-02-06T03:32:48.702Z,56.50
2019-02-06T03:35:19.077Z,58.27
2019-02-06T03:37:47.705Z,57.37
2019-02-06T03:40:18.362Z,58.63
2019-02-06T03:42:47.294Z,59.57
2019-02-06T03:45:16.285Z,62.57
2019-02-06T03:47:44.958Z,58.80
2019-02-06T03:50:16.461Z,54.27
2019-02-06T03:52:45.098Z,56.60
2019-02-06T03:55:14.261Z,55.03
2019-02-06T03:57:42.925Z,53.87
2019-02-06T04:00:16.540Z,52.27
2019-02-06T04:02:45.175Z,52.87
2019-02-06T04:05:14.109Z,53.83
2019-02-06T04:07:42.806Z,57.93
2019-02-06T04:10:16.471Z,55.20
2019-02-06T04:12:45.034Z,59.60
2019-02-06T04:15:14.646Z,63.23
2019-02-06T04:17:43.502Z,59.33
2019-02-06T04:20:14.457Z,53.20
2019-02-06T04:22:43.091Z,52.33
2019-02-06T04:25:13.809Z,49.90
2019-02-06T04:27:42.485Z,55.93
2019-02-06T04:30:17.023Z,65.20
2019-02-06T04:32:45.763Z,79.53
2019-02-06T04:35:15.640Z,53.70
2019-02-06T04:37:44.670Z,58.00
2019-02-06T04:40:21.182Z,59.90
2019-02-06T04:42:50.124Z,54.63
2019-02-06T04:45:19.835Z,53.57
2019-02-06T04:47:48.516Z,53.83
2019-02-06T04:50:18.177Z,48.43
2019-02-06T04:52:46.951Z,47.50
2019-02-06T04:55:18.778Z,44.67
2019-02-06T04:57:47.828Z,41.93
2019-02-06T05:00:25.131Z,42.23
2019-02-06T05:02:53.804Z,41.13
2019-02-06T05:05:25.267Z,41.23
2019-02-06T05:07:53.906Z,40.70
2019-02-06T05:10:22.562Z,40.23
2019-02-06T05:12:51.189Z,40.43
2019-02-06T05:15:19.974Z,40.53
2019-02-06T05:17:48.619Z,40.87
2019-02-06T05:20:25.847Z,42.63
2019-02-06T05:22:57.238Z,43.27
2019-02-06T05:25:26.199Z,51.07
2019-02-06T05:27:54.852Z,51.20
2019-02-06T05:30:23.540Z,52.60
2019-02-06T05:32:52.188Z,54.70
2019-02-06T05:35:20.862Z,54.60
2019-02-06T05:37:49.505Z,49.13
2019-02-06T05:40:18.256Z,45.67
2019-02-06T05:42:47.171Z,40.10
2019-02-06T05:45:16.415Z,42.70
2019-02-06T05:47:44.990Z,39.27
2019-02-06T05:50:18.562Z,39.70
2019-02-06T05:52:48.108Z,42.07
2019-02-06T05:55:18.390Z,38.47
2019-02-06T05:57:47.965Z,39.83
2019-02-06T06:00:26.169Z,42.17
2019-02-06T06:02:57.500Z,42.97
2019-02-06T06:05:26.269Z,43.27
2019-02-06T06:07:55.262Z,41.03
2019-02-06T06:10:24.481Z,42.50
2019-02-06T06:12:55.846Z,38.13
2019-02-06T06:15:24.613Z,38.70
2019-02-06T06:17:53.404Z,42.07
2019-02-06T06:20:22.283Z,43.80
2019-02-06T06:22:53.553Z,40.20
2019-02-06T06:25:22.505Z,35.90
2019-02-06T06:27:51.194Z,40.57
2019-02-06T06:30:21.411Z,39.13
2019-02-06T06:32:50.108Z,39.47
2019-02-06T06:35:18.979Z,40.93
2019-02-06T06:37:58.831Z,36.17
2019-02-06T06:40:27.742Z,37.93
2019-02-06T06:42:56.589Z,36.63
2019-02-06T06:45:25.876Z,37.33
2019-02-06T06:47:54.652Z,43.98
2019-02-06T06:50:25.152Z,40.00
2019-02-06T06:52:58.041Z,39.13
2019-02-06T06:55:26.965Z,42.13
2019-02-06T06:57:55.609Z,43.07
2019-02-06T07:00:26.436Z,41.53
2019-02-06T07:02:55.029Z,37.73
2019-02-06T07:05:23.801Z,34.93
2019-02-06T07:07:54.042Z,37.83
2019-02-06T07:10:23.017Z,78.10
2019-02-06T07:12:51.745Z,54.87
2019-02-06T07:15:22.722Z,38.30
2019-02-06T07:17:51.513Z,36.83
2019-02-06T07:20:20.658Z,42.33
2019-02-06T07:22:49.493Z,40.07
2019-02-06T07:25:20.103Z,40.50
2019-02-06T07:27:51.792Z,40.57
2019-02-06T07:30:26.613Z,38.33
2019-02-06T07:32:58.727Z,45.47
2019-02-06T07:35:27.414Z,48.67
2019-02-06T07:37:56.725Z,48.23
2019-02-06T07:40:26.375Z,52.30
2019-02-06T07:42:55.066Z,42.63
2019-02-06T07:45:24.031Z,44.77
2019-02-06T07:47:52.906Z,44.67
2019-02-06T07:50:37.482Z,48.50
2019-02-06T07:53:06.124Z,41.80
2019-02-06T07:55:34.965Z,37.37
2019-02-06T07:58:03.703Z,37.93
2019-02-06T08:00:32.475Z,42.33
2019-02-06T08:03:01.259Z,42.50
2019-02-06T08:05:30.087Z,43.00
2019-02-06T08:07:59.471Z,42.50
2019-02-06T08:10:30.305Z,37.43
2019-02-06T08:12:58.930Z,39.40
2019-02-06T08:15:27.685Z,37.50
2019-02-06T08:17:56.695Z,35.63
2019-02-06T08:20:25.816Z,37.40
2019-02-06T08:23:00.848Z,40.03
2019-02-06T08:25:29.670Z,44.57
2019-02-06T08:27:58.483Z,40.83
2019-02-06T08:30:33.113Z,39.90
2019-02-06T08:33:04.721Z,42.30
2019-02-06T08:35:33.844Z,46.10
2019-02-06T08:38:02.511Z,51.30
2019-02-06T08:40:32.346Z,52.10
2019-02-06T08:43:00.957Z,52.30
2019-02-06T08:45:29.737Z,40.53
2019-02-06T08:47:58.675Z,34.23
2019-02-06T08:50:27.984Z,35.47
2019-02-06T08:52:56.880Z,32.17
2019-02-06T08:55:32.898Z,34.40
2019-02-06T08:58:02.104Z,32.00
2019-02-06T09:00:33.399Z,34.23
2019-02-06T09:03:09.143Z,40.70
2019-02-06T09:05:37.865Z,41.07
2019-02-06T09:08:06.815Z,43.67
2019-02-06T09:10:35.694Z,39.70
2019-02-06T09:13:05.231Z,40.63
2019-02-06T09:15:33.877Z,39.60
2019-02-06T09:18:02.662Z,38.20
2019-02-06T09:20:31.514Z,35.33
2019-02-06T09:23:00.372Z,37.70
2019-02-06T09:25:31.940Z,39.63
2019-02-06T09:28:00.932Z,37.63
2019-02-06T09:30:36.204Z,43.30
2019-02-06T09:33:08.442Z,52.83
2019-02-06T09:35:37.209Z,41.47
2019-02-06T09:38:05.966Z,41.30
2019-02-06T09:40:36.476Z,41.93
2019-02-06T09:43:11.385Z,45.90
2019-02-06T09:45:40.184Z,50.63
2019-02-06T09:48:10.425Z,59.63
2019-02-06T09:50:40.677Z,53.63
2019-02-06T09:53:09.448Z,56.93
2019-02-06T09:55:38.124Z,57.13
2019-02-06T09:58:06.965Z,53.03
2019-02-06T10:00:37.324Z,50.23
2019-02-06T10:03:06.871Z,47.73
2019-02-06T10:05:38.370Z,48.90
2019-02-06T10:08:07.109Z,55.23
2019-02-06T10:10:35.735Z,47.70
2019-02-06T10:13:04.520Z,50.60
2019-02-06T10:15:37.586Z,50.93
2019-02-06T10:18:06.721Z,51.33
2019-02-06T10:20:40.814Z,52.50
2019-02-06T10:23:09.542Z,50.10
2019-02-06T10:25:38.858Z,47.77
2019-02-06T10:28:07.745Z,49.97
2019-02-06T10:30:42.109Z,50.23
2019-02-06T10:33:10.812Z,54.13
2019-02-06T10:35:39.555Z,52.43
2019-02-06T10:38:08.557Z,54.30
2019-02-06T10:40:40.027Z,55.97
2019-02-06T10:43:11.819Z,43.50
2019-02-06T10:45:40.717Z,42.53
2019-02-06T10:48:09.414Z,40.73
2019-02-06T10:50:44.079Z,42.60
2019-02-06T10:53:12.811Z,38.53
2019-02-06T10:55:42.638Z,37.33
2019-02-06T10:58:11.992Z,37.53
2019-02-06T11:00:52.378Z,38.03
2019-02-06T11:03:21.471Z,32.57
2019-02-06T11:06:02.634Z,32.63
2019-02-06T11:08:31.299Z,32.93
2019-02-06T11:11:04.549Z,34.33
2019-02-06T11:13:33.514Z,35.63
2019-02-06T11:16:03.482Z,32.47
2019-02-06T11:18:32.337Z,27.23
2019-02-06T11:21:04.073Z,27.10
2019-02-06T11:23:35.656Z,24.87
2019-02-06T11:26:05.531Z,26.17
2019-02-06T11:28:34.351Z,30.60
2019-02-06T11:31:05.854Z,30.03
2019-02-06T11:33:34.649Z,27.83
2019-02-06T11:36:04.879Z,24.63
2019-02-06T11:38:34.307Z,28.33
2019-02-06T11:41:03.219Z,30.20
2019-02-06T11:43:33.737Z,29.90
2019-02-06T11:46:02.532Z,26.87
2019-02-06T11:48:32.433Z,30.57
2019-02-06T11:51:01.183Z,32.13
2019-02-06T11:53:33.684Z,35.90
2019-02-06T11:56:02.792Z,38.90
2019-02-06T11:58:31.571Z,45.30
2019-02-06T12:01:02.052Z,49.23
2019-02-06T12:03:34.092Z,50.13
2019-02-06T12:06:10.719Z,50.83
2019-02-06T12:08:40.782Z,50.63
2019-02-06T12:11:12.872Z,54.90
2019-02-06T12:13:41.558Z,48.27
2019-02-06T12:16:10.513Z,69.70
2019-02-06T12:18:39.266Z,32.37
2019-02-06T12:21:13.217Z,56.40
2019-02-06T12:23:47.837Z,49.30
2019-02-06T12:26:17.274Z,53.70
2019-02-06T12:28:46.770Z,51.80
2019-02-06T12:31:15.806Z,52.40
2019-02-06T12:33:45.522Z,45.17
2019-02-06T12:36:15.819Z,50.27
2019-02-06T12:38:53.452Z,47.20
2019-02-06T12:41:19.857Z,44.90
2019-02-06T12:43:48.757Z,36.70
2019-02-06T12:46:17.562Z,26.60
2019-02-06T12:48:46.729Z,29.40
2019-02-06T12:51:18.606Z,29.53
2019-02-06T12:53:47.523Z,25.10
2019-02-06T12:56:16.323Z,23.37
2019-02-06T12:58:46.514Z,24.83
2019-02-06T13:01:16.399Z,28.10
2019-02-06T13:03:45.004Z,33.03
2019-02-06T13:06:19.880Z,35.70
2019-02-06T13:08:51.264Z,33.03
2019-02-06T13:11:19.861Z,23.33
2019-02-06T13:13:48.503Z,19.17
2019-02-06T13:16:17.289Z,17.17
2019-02-06T13:18:50.295Z,14.67
2019-02-06T13:21:20.790Z,19.73
2019-02-06T13:23:49.697Z,14.57
2019-02-06T13:26:19.039Z,15.90
2019-02-06T13:28:50.503Z,14.27
2019-02-06T13:31:22.151Z,11.73
2019-02-06T13:33:56.825Z,9.50
2019-02-06T13:36:25.469Z,10.83
2019-02-06T13:38:57.386Z,12.47
2019-02-06T13:41:30.353Z,8.20
2019-02-06T13:43:59.020Z,8.20
2019-02-06T13:46:27.829Z,7.70
2019-02-06T13:48:58.702Z,8.40
2019-02-06T13:51:29.050Z,9.60
2019-02-06T13:54:00.504Z,8.17
2019-02-06T13:56:32.064Z,8.27
2019-02-06T13:59:07.384Z,7.90
2019-02-06T14:01:36.303Z,8.03
2019-02-06T14:04:05.307Z,6.13
2019-02-06T14:06:36.707Z,5.03
2019-02-06T14:09:08.424Z,6.10
2019-02-06T14:11:37.039Z,4.93
2019-02-06T14:14:05.672Z,7.73
2019-02-06T14:16:43.189Z,9.50
2019-02-06T14:19:11.819Z,10.03
2019-02-06T14:21:43.441Z,6.17
2019-02-06T14:24:18.015Z,7.93
2019-02-06T14:26:52.296Z,6.33
2019-02-06T14:29:23.894Z,6.47
2019-02-06T14:32:15.747Z,6.60
2019-02-06T14:35:05.686Z,9.40
2019-02-06T14:37:40.290Z,10.33
2019-02-06T14:40:17.770Z,12.20
2019-02-06T14:43:09.164Z,11.77
2019-02-06T14:45:55.295Z,12.13
2019-02-06T14:48:43.261Z,21.63
2019-02-06T14:51:17.804Z,19.83
2019-02-06T14:54:01.592Z,20.50
2019-02-06T14:56:45.033Z,23.20
2019-02-06T14:59:22.507Z,26.67
2019-02-06T15:02:06.196Z,31.73
2019-02-06T15:05:00.341Z,27.70
2019-02-06T15:07:34.691Z,34.70
2019-02-06T15:10:31.854Z,29.67
2019-02-06T15:13:06.376Z,26.10
2019-02-06T15:15:59.354Z,18.87
2019-02-06T15:18:42.828Z,17.67
2019-02-06T15:21:32.596Z,20.70
2019-02-06T15:24:19.140Z,23.70
2019-02-06T15:26:53.468Z,23.03
2019-02-06T15:29:43.315Z,21.47
2019-02-06T15:32:28.382Z,22.67
2019-02-06T15:35:11.770Z,35.50
2019-02-06T15:38:20.932Z,17.77
2019-02-06T15:41:07.841Z,20.57
2019-02-06T15:43:58.020Z,22.07
2019-02-06T15:46:44.466Z,17.20
2019-02-06T15:49:40.289Z,13.43
2019-02-06T15:52:26.801Z,13.93
2019-02-06T15:55:33.168Z,23.07
2019-02-06T15:58:31.889Z,36.07
2019-02-06T16:01:24.472Z,33.57
2019-02-06T16:04:15.412Z,32.50
2019-02-06T16:06:53.797Z,33.77
2019-02-06T16:09:44.497Z,40.57
2019-02-06T16:12:24.495Z,43.27
2019-02-06T16:15:08.120Z,53.20
2019-02-06T16:17:46.614Z,77.57
2019-02-06T16:20:33.163Z,87.07
2019-02-06T16:23:30.679Z,94.53
2019-02-06T16:26:19.024Z,96.57
2019-02-06T16:29:24.197Z,84.10
2019-02-06T16:32:18.800Z,55.50
2019-02-06T16:35:23.822Z,55.13
2019-02-06T16:38:27.021Z,46.80
2019-02-06T16:41:13.587Z,45.93
2019-02-06T16:44:04.866Z,42.80
2019-02-06T16:46:51.877Z,32.70
2019-02-06T16:49:38.632Z,24.47
2019-02-06T16:52:16.268Z,31.10
2019-02-06T16:54:57.161Z,33.30
2019-02-06T16:58:03.589Z,30.87
2019-02-06T17:00:38.241Z,32.30
2019-02-06T17:03:10.500Z,26.23
2019-02-06T17:06:07.531Z,19.80
2019-02-06T17:08:39.118Z,25.67
2019-02-06T17:11:16.265Z,22.37
2019-02-06T17:14:04.405Z,24.10
2019-02-06T17:16:36.180Z,18.63
2019-02-06T17:19:22.860Z,14.47
2019-02-06T17:22:16.495Z,26.23
2019-02-06T17:24:51.086Z,23.27
2019-02-06T17:27:39.890Z,23.23
2019-02-06T17:30:31.192Z,21.73
2019-02-06T17:33:14.836Z,23.00
2019-02-06T17:35:46.514Z,34.43
2019-02-06T17:38:21.296Z,34.47
2019-02-06T17:41:15.888Z,41.93
2019-02-06T17:44:06.552Z,37.03
2019-02-06T17:46:40.763Z,29.53
2019-02-06T17:49:17.989Z,41.93
2019-02-06T17:51:58.560Z,41.43
2019-02-06T17:54:33.012Z,44.60
2019-02-06T17:57:04.380Z,43.73
2019-02-06T17:59:33.088Z,40.77
2019-02-06T18:02:07.910Z,35.40
2019-02-06T18:04:36.878Z,34.17
2019-02-06T18:07:12.646Z,37.17
2019-02-06T18:09:41.281Z,36.00
2019-02-06T18:12:10.072Z,30.93
2019-02-06T18:14:38.763Z,31.37
2019-02-06T18:17:08.152Z,32.87
2019-02-06T18:19:43.924Z,37.60
2019-02-06T18:22:22.460Z,35.43
2019-02-06T18:24:50.162Z,35.40
2019-02-06T18:27:18.786Z,36.83
2019-02-06T18:29:47.477Z,36.60
2019-02-06T18:32:16.592Z,34.63
2019-02-06T18:34:45.220Z,34.40
2019-02-06T18:37:13.883Z,32.80
2019-02-06T18:39:42.779Z,30.43
2019-02-06T18:42:11.633Z,25.97
2019-02-06T18:44:40.578Z,23.73
2019-02-06T18:47:09.213Z,25.37
2019-02-06T18:49:37.886Z,30.43
2019-02-06T18:52:06.937Z,36.40
2019-02-06T18:54:36.247Z,37.23
2019-02-06T18:57:07.597Z,36.93
2019-02-06T18:59:36.237Z,34.90
2019-02-06T19:02:09.022Z,27.63
2019-02-06T19:04:37.655Z,29.67
2019-02-06T19:07:12.912Z,32.53
2019-02-06T19:09:44.892Z,33.57
2019-02-06T19:12:13.585Z,32.67
2019-02-06T19:14:45.070Z,36.10
2019-02-06T19:17:15.184Z,48.63
2019-02-06T19:19:46.493Z,45.47
2019-02-06T19:22:16.979Z,26.93
2019-02-06T19:24:45.923Z,25.23
2019-02-06T19:27:20.132Z,29.47
2019-02-06T19:29:53.334Z,29.17
2019-02-06T19:32:21.874Z,30.30
2019-02-06T19:34:56.134Z,28.97
2019-02-06T19:37:24.809Z,27.83
2019-02-06T19:39:56.431Z,28.27
2019-02-06T19:42:25.232Z,29.27
2019-02-06T19:44:56.479Z,27.53
2019-02-06T19:47:28.597Z,29.70
2019-02-06T19:49:55.925Z,32.60
2019-02-06T19:52:24.560Z,32.80
2019-02-06T19:54:53.640Z,36.40
2019-02-06T19:57:22.390Z,40.27
2019-02-06T19:59:51.021Z,48.67
2019-02-06T20:02:19.695Z,46.67
2019-02-06T20:04:50.082Z,49.43
2019-02-06T20:07:18.720Z,48.63
2019-02-06T20:09:47.420Z,47.97
2019-02-06T20:12:16.028Z,43.33
2019-02-06T20:14:45.017Z,41.80
2019-02-06T20:17:14.276Z,48.67
2019-02-06T20:19:42.953Z,47.60
2019-02-06T20:22:11.602Z,49.00
2019-02-06T20:24:46.632Z,48.13
2019-02-06T20:27:15.355Z,50.33
2019-02-06T20:29:44.153Z,50.17
2019-02-06T20:32:15.776Z,48.83
2019-02-06T20:34:44.438Z,51.20
2019-02-06T20:37:13.022Z,48.83
2019-02-06T20:39:44.686Z,50.53
2019-02-06T20:42:13.382Z,43.87
2019-02-06T20:44:45.082Z,43.67
2019-02-06T20:47:13.887Z,42.83
2019-02-06T20:49:42.584Z,41.53
2019-02-06T20:52:11.134Z,43.43
2019-02-06T20:54:41.316Z,41.50
2019-02-06T20:57:15.661Z,38.23
2019-02-06T20:59:42.895Z,34.20
2019-02-06T21:02:17.674Z,34.17
2019-02-06T21:04:47.130Z,34.70
2019-02-06T21:07:15.869Z,36.20
2019-02-06T21:09:44.488Z,36.57
2019-02-06T21:12:13.168Z,34.37
2019-02-06T21:14:41.735Z,38.27
2019-02-06T21:17:10.544Z,35.53
2019-02-06T21:19:39.105Z,36.97
2019-02-06T21:22:10.724Z,37.07
2019-02-06T21:24:39.347Z,41.13
2019-02-06T21:27:08.400Z,41.67
2019-02-06T21:29:37.152Z,36.67
2019-02-06T21:32:05.935Z,37.90
2019-02-06T21:34:34.791Z,38.30
2019-02-06T21:37:06.157Z,34.83
2019-02-06T21:39:34.841Z,38.03
2019-02-06T21:42:03.466Z,39.83
2019-02-06T21:44:32.096Z,38.93
2019-02-06T21:47:05.436Z,29.83
2019-02-06T21:49:34.019Z,29.73
2019-02-06T21:52:07.568Z,27.23
2019-02-06T21:54:36.303Z,27.70
2019-02-06T21:57:04.978Z,28.97
2019-02-06T21:59:33.619Z,28.73
2019-02-06T22:02:02.286Z,29.43
2019-02-06T22:04:30.888Z,16.43
2019-02-06T22:06:59.441Z,13.57
2019-02-06T22:09:28.530Z,13.20
2019-02-06T22:11:57.102Z,14.33
2019-02-06T22:14:28.830Z,14.20
2019-02-06T22:17:00.484Z,15.67
2019-02-06T22:19:28.162Z,17.03
2019-02-06T22:21:56.768Z,16.47
2019-02-06T22:24:25.328Z,14.00
2019-02-06T22:26:53.990Z,12.77
2019-02-06T22:29:22.604Z,12.00
2019-02-06T22:31:54.089Z,11.87
2019-02-06T22:34:22.891Z,12.73
2019-02-06T22:36:51.406Z,12.23
2019-02-06T22:39:22.762Z,13.30
2019-02-06T22:41:51.423Z,12.57
2019-02-06T22:44:20.068Z,12.67
2019-02-06T22:46:48.724Z,11.20
2019-02-06T22:49:17.286Z,10.77
2019-02-06T22:51:48.874Z,11.70
2019-02-06T22:54:20.055Z,10.13
2019-02-06T22:56:48.596Z,11.20
2019-02-06T22:59:17.138Z,10.50
2019-02-06T23:01:46.649Z,11.93
2019-02-06T23:04:15.326Z,12.63
2019-02-06T23:06:43.964Z,12.93
2019-02-06T23:09:12.767Z,13.97
2019-02-06T23:11:41.442Z,16.20
2019-02-06T23:14:17.207Z,16.20
2019-02-06T23:16:40.527Z,17.60
2019-02-06T23:19:09.132Z,19.07
2019-02-06T23:21:37.751Z,18.40
2019-02-06T23:24:06.547Z,20.83
2019-02-06T23:26:35.181Z,21.40
2019-02-06T23:29:03.862Z,22.57
2019-02-06T23:31:32.572Z,22.63
2019-02-06T23:34:04.254Z,21.63
2019-02-06T23:36:32.874Z,18.03
2019-02-06T23:39:01.551Z,19.30
2019-02-06T23:41:30.202Z,19.80
2019-02-06T23:43:58.848Z,19.70
2019-02-06T23:46:27.490Z,19.90
2019-02-06T23:48:56.268Z,19.47
2019-02-06T23:51:24.872Z,20.40
2019-02-06T23:53:53.432Z,20.43
2019-02-06T23:56:22.116Z,19.73
2019-02-06T23:58:50.779Z,20.33
